Jerez de la Frontera, Spain
Current Conditions -  °F | °C
As of 5:00 PM on Sunday 23 Nov 2014 (Local Time) from LEJR Reporting Station
Light Rain Light Rain  
Wind Chill: 68°   Ceiling: Unl
Heat Index: 68°   Visibility: 4mi
Dew Point: 63°   Wind: 5mph
Humidity: 83%   Direction: 250°WSW
Pressure: 29.8"   Gusts: NA
Location:  36.69°N, 6.14°W
Report Text: LEJR 231600Z 25004KT 7000 -RA FEW066 20/17 Q1009
Loading
Personal Weather Stations






























Interactive Weather Map New forecast layout! Learn more

10-Day Weather Forecast

Advertisements
Track Severe Weather on mobile